Time;durP1;ratioP1;P1;durP2;ratioP2;P2;SDS_P1;SDS_P2;PMS_P1;PMS_P2;Temp;Humidity;BMP_temperature;BMP_pressure;BME280_temperature;BME280_humidity;BME280_pressure;Samples;Min_cycle;Max_cycle;Signal;HPM_P1;HPM_P2
2021/08/17 00:00:49;;;;;;;8.47;7.33;;;16.30;83.10;;;;;;5018084;28;20712;-86
2021/08/17 00:03:14;;;;;;;9.70;7.27;;;16.30;83.30;;;;;;5020032;28;20270;-87
2021/08/17 00:05:42;;;;;;;8.23;6.33;;;16.50;83.10;;;;;;5033659;28;20191;-86
2021/08/17 00:08:08;;;;;;;8.53;7.33;;;16.60;82.90;;;;;;5018957;28;20276;-88
2021/08/17 00:10:34;;;;;;;8.43;6.83;;;16.60;81.60;;;;;;5033625;28;20241;-85
2021/08/17 00:13:00;;;;;;;7.43;6.70;;;16.60;81.60;;;;;;5019130;28;20277;-86
2021/08/17 00:15:25;;;;;;;7.70;6.43;;;16.60;82.40;;;;;;5018493;28;20323;-86
2021/08/17 00:17:51;;;;;;;7.47;6.67;;;16.80;82.90;;;;;;5019275;28;20197;-88
2021/08/17 00:20:17;;;;;;;6.47;5.83;;;16.90;80.40;;;;;;5016270;28;20197;-85
2021/08/17 00:22:43;;;;;;;6.70;6.00;;;16.90;81.10;;;;;;5018762;28;20251;-86
2021/08/17 00:25:09;;;;;;;6.57;5.97;;;16.90;79.30;;;;;;5017613;28;20190;-86
2021/08/17 00:27:35;;;;;;;6.60;6.00;;;16.90;80.10;;;;;;5016626;28;20256;-85
2021/08/17 00:30:02;;;;;;;11.07;6.83;;;16.90;80.40;;;;;;5009820;28;20214;-88
2021/08/17 00:32:27;;;;;;;6.60;6.00;;;17.00;80.20;;;;;;5018739;28;20209;-86
2021/08/17 00:34:53;;;;;;;7.43;5.93;;;17.00;79.90;;;;;;5034158;28;20217;-86
2021/08/17 00:37:19;;;;;;;6.30;5.70;;;17.00;80.10;;;;;;5018458;28;20198;-86
2021/08/17 00:39:45;;;;;;;6.00;5.40;;;17.10;79.70;;;;;;5018271;28;20220;-87
2021/08/17 00:42:11;;;;;;;7.13;5.90;;;17.10;79.10;;;;;;5018946;28;20220;-85
2021/08/17 00:44:37;;;;;;;7.60;5.77;;;17.10;78.40;;;;;;5019078;28;20202;-85
2021/08/17 00:47:03;;;;;;;6.17;5.63;;;17.10;78.30;;;;;;5017370;28;20204;-86
2021/08/17 00:49:29;;;;;;;6.73;5.97;;;17.10;79.40;;;;;;5036747;28;20187;-85
2021/08/17 00:51:58;;;;;;;7.97;5.70;;;17.20;77.00;;;;;;5019285;28;20227;-85
2021/08/17 00:54:24;;;;;;;6.03;5.43;;;17.30;79.30;;;;;;5019020;28;20199;-87
2021/08/17 00:56:51;;;;;;;7.03;5.60;;;17.30;79.60;;;;;;5016304;28;20303;-88
2021/08/17 00:59:17;;;;;;;9.70;6.43;;;17.10;77.00;;;;;;5017681;28;20195;-86
2021/08/17 01:01:43;;;;;;;5.50;5.00;;;16.90;77.80;;;;;;5018719;28;20299;-86
2021/08/17 01:04:09;;;;;;;7.37;5.87;;;16.90;80.10;;;;;;5018030;28;20225;-86
2021/08/17 01:06:36;;;;;;;6.77;6.00;;;17.00;79.60;;;;;;5017224;28;20222;-85
2021/08/17 01:09:04;;;;;;;6.97;5.43;;;17.00;80.10;;;;;;5017945;28;20195;-88
2021/08/17 01:11:29;;;;;;;6.00;5.40;;;17.10;80.10;;;;;;5018388;28;20225;-85
2021/08/17 01:13:55;;;;;;;7.63;5.87;;;17.20;79.60;;;;;;5017097;28;20195;-86
2021/08/17 01:16:22;;;;;;;6.20;5.60;;;17.00;76.50;;;;;;5032344;28;20191;-87
2021/08/17 01:18:48;;;;;;;5.50;5.00;;;17.00;79.20;;;;;;5018279;28;20643;-86
2021/08/17 01:21:15;;;;;;;6.23;5.33;;;17.10;78.70;;;;;;5017744;28;20223;-86
2021/08/17 01:23:42;;;;;;;5.53;5.03;;;17.20;79.10;;;;;;5016376;28;20219;-86
2021/08/17 01:26:08;;;;;;;5.50;5.03;;;17.10;79.30;;;;;;5019048;28;20803;-86
2021/08/17 01:28:34;;;;;;;5.53;5.03;;;17.10;78.70;;;;;;5018555;28;20198;-87
2021/08/17 01:31:05;;;;;;;7.37;5.83;;;17.20;78.60;;;;;;5020610;28;20238;-86
2021/08/17 01:33:31;;;;;;;6.57;5.87;;;17.20;78.10;;;;;;5021291;28;20544;-87
2021/08/17 01:35:57;;;;;;;6.17;5.57;;;17.10;78.60;;;;;;5022328;28;20817;-86
2021/08/17 01:38:23;;;;;;;5.90;5.30;;;17.10;79.20;;;;;;5022718;28;20548;-86
2021/08/17 01:40:49;;;;;;;6.47;5.30;;;17.10;79.00;;;;;;5021722;28;20804;-86
2021/08/17 01:43:16;;;;;;;6.20;5.60;;;17.10;78.00;;;;;;5027757;28;20279;-88
2021/08/17 01:45:43;;;;;;;6.97;5.07;;;17.10;78.90;;;;;;5037408;28;20184;-86
2021/08/17 01:48:12;;;;;;;6.30;5.60;;;17.10;79.00;;;;;;5037945;28;20212;-86
2021/08/17 01:50:38;;;;;;;5.97;5.40;;;17.10;78.90;;;;;;5025564;28;20269;-86
2021/08/17 01:53:04;;;;;;;7.00;5.33;;;17.20;78.70;;;;;;5021263;28;20679;-86
2021/08/17 01:55:30;;;;;;;6.53;5.85;;;17.20;76.70;;;;;;5021696;28;20219;-86
2021/08/17 01:57:57;;;;;;;7.40;5.73;;;17.00;77.30;;;;;;5021243;28;20190;-88
2021/08/17 02:00:23;;;;;;;5.20;4.70;;;17.10;78.50;;;;;;5019416;28;20200;-85
2021/08/17 02:02:49;;;;;;;5.80;5.00;;;17.10;77.40;;;;;;5020459;28;20219;-85
2021/08/17 02:05:20;;;;;;;6.40;5.63;;;17.00;77.20;;;;;;5022115;28;20200;-85
2021/08/17 02:07:46;;;;;;;6.05;5.40;;;17.00;78.10;;;;;;5022125;28;20180;-87
2021/08/17 02:10:12;;;;;;;7.53;5.43;;;17.00;78.00;;;;;;5039452;28;20705;-88
2021/08/17 02:12:37;;;;;;;5.50;5.00;;;17.00;77.60;;;;;;5033273;28;20211;-86
2021/08/17 02:15:04;;;;;;;6.93;5.20;;;16.80;76.40;;;;;;5020851;28;20199;-87
2021/08/17 02:17:30;;;;;;;6.43;4.97;;;16.80;78.40;;;;;;5037051;28;20211;-86
2021/08/17 02:19:56;;;;;;;7.90;5.90;;;16.70;76.80;;;;;;5022676;28;20194;-85
2021/08/17 02:22:22;;;;;;;9.00;5.87;;;16.30;78.00;;;;;;5021618;28;20515;-85
2021/08/17 02:24:47;;;;;;;6.23;5.67;;;15.90;80.00;;;;;;5022127;28;20185;-87
2021/08/17 02:27:13;;;;;;;6.40;5.13;;;15.80;81.40;;;;;;5021398;28;20408;-84
2021/08/17 02:29:39;;;;;;;6.03;4.77;;;15.70;81.60;;;;;;5020165;28;20201;-85
2021/08/17 02:32:05;;;;;;;6.10;5.10;;;15.90;82.10;;;;;;5021312;28;20285;-86
2021/08/17 02:34:30;;;;;;;7.10;5.60;;;16.00;80.40;;;;;;5034344;28;20191;-86
2021/08/17 02:36:56;;;;;;;6.63;5.30;;;16.10;80.70;;;;;;5030964;28;20201;-88
2021/08/17 02:39:22;;;;;;;6.83;5.77;;;16.10;79.20;;;;;;5050578;28;20182;-87
2021/08/17 02:41:47;;;;;;;6.30;5.47;;;16.00;78.00;;;;;;5034378;28;20221;-86
2021/08/17 02:44:13;;;;;;;6.10;5.50;;;15.90;80.30;;;;;;5025439;28;20814;-86
2021/08/17 02:46:38;;;;;;;6.67;5.90;;;15.90;79.80;;;;;;5020219;28;20201;-87
2021/08/17 02:49:05;;;;;;;6.43;5.50;;;15.80;79.80;;;;;;5021354;28;20211;-85
2021/08/17 02:51:31;;;;;;;6.40;5.57;;;15.90;80.70;;;;;;5021529;28;20300;-87
2021/08/17 02:53:56;;;;;;;8.80;6.40;;;16.00;80.50;;;;;;5022267;28;20228;-85
2021/08/17 02:56:22;;;;;;;7.50;6.80;;;16.00;80.30;;;;;;5021192;28;20669;-86
2021/08/17 02:58:48;;;;;;;7.23;6.03;;;16.00;79.70;;;;;;5020616;28;20194;-85
2021/08/17 03:01:13;;;;;;;8.83;6.50;;;16.10;80.60;;;;;;5035607;28;20232;-85
2021/08/17 03:03:39;;;;;;;7.37;5.57;;;16.00;78.70;;;;;;5021120;28;20219;-86
2021/08/17 03:06:05;;;;;;;8.33;5.83;;;15.90;79.60;;;;;;5012654;28;20189;-85
2021/08/17 03:08:30;;;;;;;6.13;5.53;;;15.90;79.10;;;;;;5019748;28;20204;-85
2021/08/17 03:10:56;;;;;;;8.17;6.77;;;16.00;80.70;;;;;;5020650;28;20541;-85
2021/08/17 03:13:22;;;;;;;6.53;5.60;;;16.10;79.60;;;;;;5020077;28;20193;-85
2021/08/17 03:15:48;;;;;;;7.47;5.57;;;16.10;79.50;;;;;;5020370;28;20196;-86
2021/08/17 03:18:14;;;;;;;6.50;5.90;;;16.20;80.10;;;;;;5020234;28;20198;-87
2021/08/17 03:20:39;;;;;;;6.83;6.10;;;16.20;79.90;;;;;;5018962;28;20338;-85
2021/08/17 03:23:06;;;;;;;6.20;5.47;;;16.20;79.70;;;;;;5019069;28;20221;-86
2021/08/17 03:25:32;;;;;;;6.87;5.17;;;16.30;78.80;;;;;;5020926;28;20654;-86
2021/08/17 03:27:57;;;;;;;6.47;5.80;;;16.30;78.70;;;;;;5018272;28;20212;-86
2021/08/17 03:30:25;;;;;;;8.90;5.67;;;16.30;78.50;;;;;;5034823;28;20197;-85
2021/08/17 03:32:51;;;;;;;6.27;5.30;;;16.20;78.30;;;;;;5020251;28;20618;-86
2021/08/17 03:35:17;;;;;;;10.17;6.23;;;16.20;78.50;;;;;;5018822;28;20193;-86
2021/08/17 03:37:43;;;;;;;7.50;6.07;;;16.10;79.80;;;;;;5005164;28;20221;-85
2021/08/17 03:40:14;;;;;;;7.10;5.70;;;15.80;78.50;;;;;;5020907;28;20204;-85
2021/08/17 03:42:40;;;;;;;6.77;5.57;;;15.60;81.80;;;;;;5021010;28;20213;-85
2021/08/17 03:45:09;;;;;;;8.97;6.77;;;15.30;80.90;;;;;;5035824;28;20559;-85
2021/08/17 03:47:34;;;;;;;7.20;5.77;;;15.20;81.30;;;;;;5018862;28;20276;-86
2021/08/17 03:50:00;;;;;;;7.50;6.70;;;15.00;83.10;;;;;;5012263;28;20193;-85
2021/08/17 03:52:26;;;;;;;7.10;6.37;;;15.00;82.00;;;;;;5006797;28;20277;-85
2021/08/17 03:54:52;;;;;;;7.17;6.00;;;14.80;82.70;;;;;;5020938;28;20192;-85
2021/08/17 03:57:17;;;;;;;7.93;6.17;;;14.80;83.90;;;;;;5018047;28;20189;-85
2021/08/17 03:59:43;;;;;;;7.67;6.40;;;14.70;83.30;;;;;;5021766;28;20197;-85
2021/08/17 04:02:09;;;;;;;6.70;6.10;;;14.60;84.40;;;;;;5021145;28;20230;-86
2021/08/17 04:04:35;;;;;;;6.57;5.87;;;14.50;85.20;;;;;;5020410;28;20237;-86
2021/08/17 04:07:00;;;;;;;7.60;6.80;;;14.50;85.10;;;;;;5020780;28;20309;-85
2021/08/17 04:09:26;;;;;;;8.37;6.93;;;14.40;85.10;;;;;;5019468;28;20216;-85
2021/08/17 04:11:52;;;;;;;8.27;6.27;;;14.30;84.90;;;;;;5020804;28;20228;-85
2021/08/17 04:14:17;;;;;;;7.43;6.70;;;14.20;86.00;;;;;;5020972;28;20285;-86
2021/08/17 04:16:43;;;;;;;8.33;6.47;;;14.10;87.60;;;;;;5023051;28;20208;-85
2021/08/17 04:19:09;;;;;;;8.33;7.43;;;14.20;86.40;;;;;;5030751;28;20191;-85
2021/08/17 04:21:34;;;;;;;9.77;7.03;;;14.10;86.90;;;;;;5019359;28;20220;-86
2021/08/17 04:24:00;;;;;;;8.40;7.20;;;14.10;88.40;;;;;;5017268;28;20626;-85
2021/08/17 04:26:26;;;;;;;8.43;6.70;;;14.20;86.90;;;;;;5022314;28;20194;-85
2021/08/17 04:28:52;;;;;;;8.63;6.47;;;14.30;85.50;;;;;;5022387;28;20195;-85
2021/08/17 04:31:19;;;;;;;7.83;6.40;;;14.20;85.40;;;;;;5021474;28;20218;-87
2021/08/17 04:33:44;;;;;;;9.07;7.00;;;14.20;86.00;;;;;;5023505;28;20335;-85
2021/08/17 04:36:10;;;;;;;10.50;6.60;;;14.20;86.20;;;;;;5022375;28;20198;-85
2021/08/17 04:38:36;;;;;;;7.70;6.67;;;14.10;86.90;;;;;;5019803;28;20261;-85
2021/08/17 04:41:02;;;;;;;8.60;6.77;;;13.90;87.50;;;;;;5022104;28;20231;-86
2021/08/17 04:43:27;;;;;;;7.87;6.63;;;13.70;87.40;;;;;;5020216;28;20272;-85
2021/08/17 04:45:53;;;;;;;8.70;7.63;;;13.60;88.60;;;;;;5021854;28;20264;-87
2021/08/17 04:48:19;;;;;;;7.47;6.20;;;13.70;88.60;;;;;;5022575;28;20235;-87
2021/08/17 04:50:45;;;;;;;8.67;7.50;;;13.70;89.30;;;;;;5036534;28;20228;-85
2021/08/17 04:53:11;;;;;;;9.90;6.90;;;13.70;89.10;;;;;;5024810;28;20225;-85
2021/08/17 04:55:37;;;;;;;9.67;7.50;;;13.70;88.50;;;;;;5025042;28;20198;-86
2021/08/17 04:58:04;;;;;;;8.57;6.90;;;13.70;89.20;;;;;;5022430;28;20207;-83
2021/08/17 05:00:31;;;;;;;9.63;7.80;;;13.60;89.10;;;;;;5020992;28;20217;-83
2021/08/17 05:02:57;;;;;;;8.73;7.63;;;13.50;89.90;;;;;;5022529;28;20271;-85
2021/08/17 05:05:23;;;;;;;9.67;8.33;;;13.50;90.50;;;;;;5027238;28;20658;-85
2021/08/17 05:07:50;;;;;;;9.73;7.47;;;13.50;90.40;;;;;;5031949;28;20253;-85
2021/08/17 05:10:18;;;;;;;7.60;6.77;;;13.70;90.60;;;;;;5046536;28;20192;-82
2021/08/17 05:12:44;;;;;;;8.80;7.50;;;13.80;88.60;;;;;;5035443;28;20210;-84
2021/08/17 05:15:11;;;;;;;10.20;7.53;;;13.80;88.40;;;;;;5034828;28;20204;-82
2021/08/17 05:17:37;;;;;;;11.17;8.43;;;13.90;89.50;;;;;;5030780;28;20396;-84
2021/08/17 05:20:04;;;;;;;9.87;7.43;;;13.80;88.80;;;;;;5031697;28;20186;-84
2021/08/17 05:22:30;;;;;;;9.43;7.17;;;13.70;89.60;;;;;;5030645;28;20224;-85
2021/08/17 05:24:56;;;;;;;11.53;8.77;;;13.80;89.70;;;;;;5021460;28;20640;-85
2021/08/17 05:27:22;;;;;;;10.27;8.33;;;13.60;90.40;;;;;;5034882;28;20194;-85
2021/08/17 05:29:50;;;;;;;11.13;8.87;;;13.60;90.20;;;;;;5020925;28;20197;-83
2021/08/17 05:32:16;;;;;;;12.23;8.20;;;13.70;90.00;;;;;;5022665;28;20280;-83
2021/08/17 05:34:42;;;;;;;11.40;8.07;;;13.70;90.50;;;;;;5020879;28;20528;-84
2021/08/17 05:37:08;;;;;;;11.13;8.13;;;13.80;90.50;;;;;;5020417;28;20215;-83
2021/08/17 05:39:33;;;;;;;9.80;8.47;;;13.90;89.90;;;;;;5023014;28;20229;-84
2021/08/17 05:41:59;;;;;;;10.53;8.10;;;14.00;90.20;;;;;;5022484;28;20311;-84
2021/08/17 05:44:25;;;;;;;12.10;9.23;;;13.90;90.00;;;;;;5025784;28;20198;-82
2021/08/17 05:46:50;;;;;;;11.87;9.33;;;14.00;90.40;;;;;;5027862;28;20602;-83
2021/08/17 05:49:16;;;;;;;12.67;9.83;;;14.10;89.80;;;;;;5020401;28;20204;-84
2021/08/17 05:51:42;;;;;;;11.83;9.10;;;14.20;89.70;;;;;;5021074;28;20236;-83
2021/08/17 05:54:07;;;;;;;10.13;9.03;;;14.20;90.50;;;;;;5020833;28;20307;-85
2021/08/17 05:56:33;;;;;;;10.47;8.77;;;14.30;90.60;;;;;;5020748;28;20197;-87
2021/08/17 05:58:59;;;;;;;12.57;9.03;;;14.30;89.80;;;;;;5020153;28;20221;-86
2021/08/17 06:01:25;;;;;;;10.50;9.27;;;14.20;90.30;;;;;;5018300;28;20939;-86
2021/08/17 06:03:50;;;;;;;10.80;9.37;;;14.30;90.70;;;;;;5019639;28;20348;-84
2021/08/17 06:06:16;;;;;;;10.50;9.07;;;14.30;90.80;;;;;;5020866;28;20194;-85
2021/08/17 06:08:42;;;;;;;9.80;8.70;;;14.50;88.90;;;;;;5019898;28;20183;-87
2021/08/17 06:11:08;;;;;;;12.30;10.00;;;14.60;89.30;;;;;;5018496;28;20439;-86
2021/08/17 06:13:33;;;;;;;14.47;10.03;;;14.60;88.30;;;;;;5019387;28;20230;-81
2021/08/17 06:15:59;;;;;;;13.77;9.13;;;14.70;88.90;;;;;;5013414;28;20209;-86
2021/08/17 06:18:25;;;;;;;14.53;8.87;;;14.80;88.50;;;;;;5018635;28;20222;-85
2021/08/17 06:20:51;;;;;;;11.47;9.80;;;14.80;87.00;;;;;;5018460;28;20213;-85
2021/08/17 06:23:17;;;;;;;13.03;9.77;;;14.80;87.50;;;;;;5018042;28;20286;-84
2021/08/17 06:25:44;;;;;;;12.37;9.23;;;14.50;88.60;;;;;;5019383;28;20217;-84
2021/08/17 06:28:11;;;;;;;9.77;8.73;;;14.50;89.10;;;;;;5023223;28;20185;-84
2021/08/17 06:30:39;;;;;;;11.17;9.17;;;14.50;89.00;;;;;;5022019;28;20201;-84
2021/08/17 06:33:05;;;;;;;10.60;8.83;;;14.50;89.20;;;;;;5020306;28;20277;-85
2021/08/17 06:35:31;;;;;;;13.47;9.23;;;14.60;89.90;;;;;;5021474;28;20626;-84
2021/08/17 06:37:57;;;;;;;12.60;9.53;;;14.80;86.80;;;;;;5022766;28;20186;-83
2021/08/17 06:40:24;;;;;;;12.07;9.47;;;14.90;85.60;;;;;;5021200;28;20216;-85
2021/08/17 06:42:50;;;;;;;11.43;9.73;;;14.90;87.50;;;;;;5022074;28;20316;-85
2021/08/17 06:45:16;;;;;;;12.60;10.00;;;14.80;87.40;;;;;;5017922;28;20277;-85
2021/08/17 06:47:50;;;;;;;14.10;10.03;;;14.80;87.50;;;;;;5021173;28;20181;-85
2021/08/17 06:50:17;;;;;;;14.20;10.10;;;14.80;88.10;;;;;;5018340;28;20763;-85
2021/08/17 06:52:43;;;;;;;15.37;10.37;;;14.70;88.50;;;;;;5017941;28;20186;-85
2021/08/17 06:55:10;;;;;;;11.93;9.30;;;14.80;88.70;;;;;;5015184;28;20397;-85
2021/08/17 06:57:36;;;;;;;16.30;10.30;;;15.10;86.60;;;;;;5016348;28;20212;-84
2021/08/17 07:00:04;;;;;;;12.87;11.00;;;15.10;87.50;;;;;;5016813;28;20220;-84
2021/08/17 07:02:30;;;;;;;13.10;10.57;;;15.20;86.30;;;;;;5017810;28;20213;-84
2021/08/17 07:04:56;;;;;;;11.33;10.13;;;15.10;87.60;;;;;;5017815;28;20679;-83
2021/08/17 07:07:21;;;;;;;14.23;11.20;;;15.20;86.50;;;;;;5005385;28;20200;-86
2021/08/17 07:09:48;;;;;;;12.67;11.13;;;15.20;86.80;;;;;;5018366;28;20705;-85
2021/08/17 07:12:13;;;;;;;13.53;12.03;;;15.20;87.40;;;;;;5033314;28;20217;-85
2021/08/17 07:14:39;;;;;;;14.67;12.33;;;15.40;87.20;;;;;;5018151;28;20194;-84
2021/08/17 07:17:05;;;;;;;13.93;12.33;;;15.50;86.20;;;;;;5017066;28;20195;-86
2021/08/17 07:19:31;;;;;;;16.50;13.57;;;15.50;85.50;;;;;;5017523;28;20194;-83
2021/08/17 07:21:58;;;;;;;14.07;11.80;;;15.60;84.60;;;;;;5017832;28;20205;-85
2021/08/17 07:24:24;;;;;;;16.77;12.47;;;15.70;82.70;;;;;;5017885;28;20303;-86
2021/08/17 07:26:50;;;;;;;14.07;11.63;;;15.80;81.10;;;;;;5016352;28;20185;-85
2021/08/17 07:29:16;;;;;;;15.43;12.37;;;15.70;82.60;;;;;;5017092;28;20193;-86
2021/08/17 07:31:42;;;;;;;14.43;12.40;;;15.90;80.60;;;;;;5016855;28;20267;-86
2021/08/17 07:34:08;;;;;;;17.23;13.20;;;16.10;81.40;;;;;;5017470;28;20203;-86
2021/08/17 07:36:36;;;;;;;15.60;13.20;;;16.00;81.00;;;;;;5014936;28;20192;-86
2021/08/17 07:39:03;;;;;;;15.47;13.57;;;16.10;82.50;;;;;;5016293;28;20195;-85
2021/08/17 07:41:29;;;;;;;15.13;12.37;;;16.20;78.60;;;;;;5017032;28;20225;-84
2021/08/17 07:43:54;;;;;;;15.20;13.50;;;16.20;78.40;;;;;;5016716;28;20237;-86
2021/08/17 07:46:21;;;;;;;15.23;12.90;;;16.20;77.80;;;;;;5015024;28;20190;-86
2021/08/17 07:48:46;;;;;;;13.30;11.90;;;16.20;80.20;;;;;;5016419;28;20188;-85
2021/08/17 07:51:12;;;;;;;14.43;12.47;;;16.30;78.50;;;;;;5016244;28;20203;-85
2021/08/17 07:53:38;;;;;;;13.67;12.27;;;16.50;77.30;;;;;;5017040;28;20213;-85
2021/08/17 07:56:04;;;;;;;14.30;12.63;;;16.40;75.10;;;;;;5016341;28;20200;-86
2021/08/17 07:58:30;;;;;;;13.47;12.07;;;16.40;77.40;;;;;;5016804;28;20203;-85
2021/08/17 08:00:55;;;;;;;13.67;11.53;;;16.60;75.60;;;;;;5016149;28;20213;-84
2021/08/17 08:03:21;;;;;;;12.30;11.07;;;16.60;73.90;;;;;;5016406;28;20308;-86
2021/08/17 08:05:47;;;;;;;12.43;11.07;;;16.70;74.40;;;;;;5014953;28;20191;-86
2021/08/17 08:08:12;;;;;;;12.20;10.93;;;16.80;73.00;;;;;;5017000;28;20186;-86
2021/08/17 08:10:38;;;;;;;13.67;12.27;;;16.80;75.00;;;;;;5015862;28;20198;-86
2021/08/17 08:13:04;;;;;;;14.27;11.20;;;16.90;73.20;;;;;;5017215;28;20190;-85
2021/08/17 08:15:31;;;;;;;13.60;11.63;;;17.00;71.00;;;;;;5015896;28;20195;-86
2021/08/17 08:17:57;;;;;;;12.87;11.37;;;17.00;73.00;;;;;;5017240;28;20209;-86
2021/08/17 08:20:22;;;;;;;14.77;11.57;;;16.90;72.10;;;;;;5017894;28;20591;-86
2021/08/17 08:22:49;;;;;;;11.90;10.60;;;16.80;71.30;;;;;;5017444;28;20233;-86
2021/08/17 08:25:16;;;;;;;12.80;11.37;;;16.80;70.40;;;;;;5017471;28;20301;-86
2021/08/17 08:27:42;;;;;;;13.97;11.87;;;16.80;73.40;;;;;;5017738;28;20186;-87
2021/08/17 08:30:08;;;;;;;14.27;10.43;;;16.80;72.30;;;;;;5017686;28;20191;-86
2021/08/17 08:32:35;;;;;;;15.00;11.87;;;16.60;75.00;;;;;;5015893;28;20212;-84
2021/08/17 08:35:05;;;;;;;13.23;11.43;;;16.60;74.30;;;;;;5017588;28;20196;-86
2021/08/17 08:37:31;;;;;;;13.00;11.40;;;16.70;74.50;;;;;;5018107;28;20224;-86
2021/08/17 08:39:57;;;;;;;13.47;11.37;;;16.80;72.90;;;;;;5020054;28;20281;-86
2021/08/17 08:42:25;;;;;;;13.90;11.97;;;17.00;73.10;;;;;;5020837;28;20223;-86
2021/08/17 08:44:52;;;;;;;12.87;10.57;;;17.20;71.60;;;;;;5021078;28;20285;-86
2021/08/17 08:47:19;;;;;;;11.63;10.30;;;17.20;73.00;;;;;;5020395;28;20187;-86
2021/08/17 08:49:50;;;;;;;13.27;11.40;;;17.20;71.00;;;;;;5021381;28;20186;-86
2021/08/17 08:52:17;;;;;;;12.90;11.13;;;17.20;72.90;;;;;;5019803;28;20224;-86
2021/08/17 08:54:42;;;;;;;12.30;10.40;;;17.10;74.50;;;;;;5019551;28;20279;-83
2021/08/17 08:57:09;;;;;;;13.63;11.67;;;17.00;71.00;;;;;;5019927;28;20224;-84
2021/08/17 08:59:34;;;;;;;12.13;10.83;;;16.90;72.10;;;;;;5020962;28;20190;-86
2021/08/17 09:02:06;;;;;;;11.73;10.13;;;16.80;72.20;;;;;;5020312;28;20705;-86
2021/08/17 09:04:31;;;;;;;12.67;11.00;;;16.70;71.30;;;;;;5020852;28;20264;-85
2021/08/17 09:06:57;;;;;;;10.83;9.73;;;16.80;73.10;;;;;;5019156;28;20228;-85
2021/08/17 09:09:23;;;;;;;13.20;10.77;;;17.00;71.60;;;;;;5019812;28;20286;-86
2021/08/17 09:11:54;;;;;;;12.87;10.37;;;17.10;69.60;;;;;;5019765;28;20231;-86
2021/08/17 09:14:29;;;;;;;12.07;10.77;;;17.30;70.30;;;;;;5020295;28;20733;-86
2021/08/17 09:17:06;;;;;;;14.63;11.57;;;17.30;71.40;;;;;;5018684;28;20280;-86
2021/08/17 09:19:36;;;;;;;13.00;10.43;;;17.50;71.30;;;;;;5019984;28;20189;-86
2021/08/17 09:22:16;;;;;;;11.47;10.33;;;17.70;69.70;;;;;;5019815;28;20218;-85
2021/08/17 09:24:47;;;;;;;12.37;9.83;;;17.80;70.30;;;;;;5020127;28;20584;-86
2021/08/17 09:27:18;;;;;;;10.90;9.80;;;17.80;68.80;;;;;;5020816;28;20193;-86
2021/08/17 09:29:46;;;;;;;10.50;9.50;;;17.80;67.30;;;;;;5019694;28;20222;-85
2021/08/17 09:32:20;;;;;;;11.30;9.00;;;17.70;66.60;;;;;;5020964;28;20274;-86
2021/08/17 09:34:55;;;;;;;10.10;9.10;;;17.80;65.70;;;;;;5019805;28;20277;-86
2021/08/17 09:37:26;;;;;;;11.30;10.03;;;17.60;65.90;;;;;;5021422;28;20726;-86
2021/08/17 09:39:54;;;;;;;10.83;9.77;;;17.60;66.70;;;;;;5022125;28;20216;-86
2021/08/17 09:42:26;;;;;;;11.37;9.23;;;17.70;66.10;;;;;;5028410;28;20210;-84
2021/08/17 09:45:09;;;;;;;11.87;9.83;;;17.80;65.30;;;;;;5036241;28;20190;-83
2021/08/17 09:47:44;;;;;;;12.07;10.07;;;17.90;66.40;;;;;;5034789;28;20223;-85
2021/08/17 09:50:18;;;;;;;11.53;10.37;;;17.80;67.20;;;;;;5022879;28;20862;-84
2021/08/17 09:52:44;;;;;;;14.27;10.00;;;17.90;67.40;;;;;;5022320;28;20185;-84
2021/08/17 09:55:16;;;;;;;11.97;10.50;;;18.00;68.00;;;;;;5022287;28;20623;-84
2021/08/17 09:57:42;;;;;;;11.83;10.03;;;18.50;65.70;;;;;;5022288;28;20192;-87
2021/08/17 10:00:14;;;;;;;12.57;10.30;;;18.60;66.50;;;;;;5018276;28;20195;-87
2021/08/17 10:02:42;;;;;;;12.27;10.47;;;18.60;65.50;;;;;;5019612;28;20278;-87
2021/08/17 10:05:10;;;;;;;11.73;10.63;;;18.60;63.90;;;;;;5019705;28;20274;-87
2021/08/17 10:07:37;;;;;;;11.93;10.73;;;18.30;65.60;;;;;;5018617;28;20658;-87
2021/08/17 10:10:03;;;;;;;14.10;10.57;;;18.40;64.70;;;;;;5019820;28;20274;-87
2021/08/17 10:12:29;;;;;;;12.10;10.90;;;18.50;66.90;;;;;;5019538;28;20565;-87
2021/08/17 10:14:55;;;;;;;12.07;10.20;;;18.70;63.30;;;;;;5020377;28;20295;-88
2021/08/17 10:17:20;;;;;;;11.57;10.37;;;18.90;64.30;;;;;;5022741;28;20229;-86
2021/08/17 10:19:46;;;;;;;12.38;11.07;;;19.00;62.60;;;;;;5020544;28;20211;-87
2021/08/17 10:22:12;;;;;;;13.32;10.70;;;19.20;62.90;;;;;;5018331;28;20219;-87
2021/08/17 10:24:41;;;;;;;12.20;10.23;;;19.10;59.60;;;;;;5018342;28;20213;-87
2021/08/17 10:27:16;;;;;;;11.43;10.20;;;19.30;61.20;;;;;;5034994;28;20196;-86
2021/08/17 10:30:06;;;;;;;11.52;10.38;;;19.30;60.90;;;;;;5017119;28;20188;-86
2021/08/17 10:32:47;;;;;;;11.68;10.40;;;19.60;60.20;;;;;;5015331;28;20250;-87
2021/08/17 10:35:29;;;;;;;11.25;10.10;;;19.90;59.50;;;;;;5018890;28;20200;-87
2021/08/17 10:38:07;;;;;;;13.07;10.60;;;20.30;57.30;;;;;;5018553;28;20197;-87
2021/08/17 10:40:51;;;;;;;12.38;11.15;;;20.60;57.50;;;;;;5019227;28;20256;-85
2021/08/17 10:43:42;;;;;;;11.32;10.13;;;20.50;58.10;;;;;;5019279;28;20202;-86
2021/08/17 10:46:10;;;;;;;10.40;9.40;;;20.80;55.50;;;;;;5015685;28;20181;-85
2021/08/17 10:48:53;;;;;;;10.30;9.10;;;20.90;52.90;;;;;;5019450;28;20182;-86
2021/08/17 10:51:19;;;;;;;10.45;9.45;;;21.10;53.80;;;;;;5018965;28;20249;-87
2021/08/17 10:54:03;;;;;;;9.73;8.80;;;21.00;53.60;;;;;;5016019;28;20299;-87
2021/08/17 10:56:34;;;;;;;9.30;8.40;;;21.30;50.70;;;;;;5017473;28;20190;-86
2021/08/17 10:59:00;;;;;;;10.70;9.60;;;21.60;50.60;;;;;;5018271;28;20483;-87
2021/08/17 11:01:32;;;;;;;10.07;9.05;;;21.70;52.10;;;;;;5017513;28;20686;-85
2021/08/17 11:03:59;;;;;;;9.52;8.63;;;22.10;50.30;;;;;;5032828;28;20296;-87
2021/08/17 11:06:38;;;;;;;9.73;8.73;;;22.20;51.30;;;;;;5018102;28;20211;-86
2021/08/17 11:09:31;;;;;;;9.32;8.43;;;22.50;51.20;;;;;;5016634;28;20179;-87
2021/08/17 11:12:06;;;;;;;8.88;8.07;;;22.20;49.90;;;;;;5014785;28;20600;-86
2021/08/17 11:14:33;;;;;;;8.98;8.18;;;21.90;48.80;;;;;;5017193;28;20727;-86
2021/08/17 11:17:02;;;;;;;7.95;7.20;;;22.00;47.10;;;;;;5017770;28;20209;-86
2021/08/17 11:19:33;;;;;;;8.48;7.68;;;21.60;48.20;;;;;;5018053;28;20274;-86
2021/08/17 11:22:07;;;;;;;8.73;7.93;;;21.60;48.30;;;;;;5018077;28;20209;-86
2021/08/17 11:24:36;;;;;;;9.55;8.48;;;21.50;46.90;;;;;;5018672;28;20186;-86
2021/08/17 11:27:02;;;;;;;8.02;7.32;;;22.00;45.00;;;;;;5017970;28;20184;-86
2021/08/17 11:29:59;;;;;;;9.40;8.35;;;22.50;45.80;;;;;;5016932;28;20185;-86
2021/08/17 11:32:32;;;;;;;9.15;8.25;;;22.80;44.50;;;;;;5017792;28;20437;-86
2021/08/17 11:35:05;;;;;;;8.68;7.45;;;22.80;45.10;;;;;;5018947;28;20942;-86
2021/08/17 11:37:33;;;;;;;7.75;7.05;;;22.70;44.80;;;;;;5032455;28;20193;-86
2021/08/17 11:40:02;;;;;;;8.57;7.68;;;22.60;45.70;;;;;;5018955;28;20192;-86
2021/08/17 11:42:33;;;;;;;8.65;7.70;;;23.00;42.70;;;;;;5019070;28;20392;-87
2021/08/17 11:45:22;;;;;;;8.50;7.70;;;23.20;43.60;;;;;;5018719;28;20181;-87
2021/08/17 11:47:51;;;;;;;8.52;7.72;;;22.90;43.00;;;;;;5027739;28;20273;-87
2021/08/17 11:50:19;;;;;;;8.68;7.78;;;23.00;41.90;;;;;;5014835;28;20190;-86
2021/08/17 11:52:50;;;;;;;8.18;7.45;;;22.70;42.00;;;;;;5014559;28;20220;-86
2021/08/17 11:55:18;;;;;;;8.65;7.75;;;22.80;43.80;;;;;;5015539;28;20216;-86
2021/08/17 11:57:47;;;;;;;7.95;7.15;;;22.70;42.80;;;;;;5014237;28;20692;-86
2021/08/17 12:00:16;;;;;;;7.97;7.28;;;22.60;41.60;;;;;;5015391;28;20196;-87
2021/08/17 12:02:43;;;;;;;8.00;7.22;;;22.50;40.20;;;;;;5014666;28;20572;-86
2021/08/17 12:05:12;;;;;;;7.68;6.90;;;22.70;40.80;;;;;;5014782;28;20194;-86
2021/08/17 12:07:38;;;;;;;8.05;7.35;;;23.30;40.10;;;;;;5013510;28;20185;-87
2021/08/17 12:10:09;;;;;;;7.90;7.03;;;23.20;43.10;;;;;;5014550;28;20181;-88
2021/08/17 12:12:53;;;;;;;8.40;7.60;;;22.60;43.90;;;;;;5012809;28;20216;-87
2021/08/17 12:15:25;;;;;;;8.15;7.32;;;22.70;45.30;;;;;;5015339;28;20200;-85
2021/08/17 12:18:06;;;;;;;7.43;6.78;;;22.90;44.50;;;;;;5017294;28;20188;-86
2021/08/17 12:20:33;;;;;;;8.13;7.35;;;23.40;41.70;;;;;;4999084;28;20217;-86
2021/08/17 12:23:12;;;;;;;7.15;6.55;;;24.00;42.80;;;;;;5028252;28;20216;-85
2021/08/17 12:25:38;;;;;;;9.02;8.23;;;24.90;38.50;;;;;;5014884;28;20180;-86
2021/08/17 12:28:03;;;;;;;8.43;7.63;;;25.50;38.50;;;;;;5016864;28;20201;-85
2021/08/17 12:30:31;;;;;;;8.77;7.88;;;24.40;38.90;;;;;;5016884;28;20198;-86
2021/08/17 12:32:58;;;;;;;8.45;7.70;;;23.80;38.70;;;;;;5016867;28;20189;-86
2021/08/17 12:35:26;;;;;;;8.38;7.57;;;23.90;42.70;;;;;;5017044;28;20280;-87
2021/08/17 12:37:52;;;;;;;10.15;7.60;;;24.10;40.00;;;;;;5031205;28;20191;-85
2021/08/17 12:40:18;;;;;;;7.68;6.97;;;24.20;40.20;;;;;;5015665;28;20276;-86
2021/08/17 12:42:45;;;;;;;8.43;7.63;;;23.90;40.60;;;;;;5017365;28;20209;-88